Time;durP1;ratioP1;P1;durP2;ratioP2;P2;SDS_P1;SDS_P2;PMS_P1;PMS_P2;Temp;Humidity;BMP_temperature;BMP_pressure;BME280_temperature;BME280_humidity;BME280_pressure;Samples;Min_cycle;Max_cycle;Signal;HPM_P1;HPM_P2
2022/01/18 00:01:15;;;;;;;2.05;0.60;;;;;;;-1.07;73.38;99682.69;4486415;31;20092;-72
2022/01/18 00:03:43;;;;;;;3.92;0.90;;;;;;;-1.00;72.69;99679.94;4486314;31;20149;-72
2022/01/18 00:06:10;;;;;;;2.05;0.50;;;;;;;-1.09;72.91;99694.75;4486514;31;20114;-72
2022/01/18 00:08:38;;;;;;;7.28;1.33;;;;;;;-1.04;72.66;99694.63;4486360;31;20532;-72
2022/01/18 00:11:06;;;;;;;5.72;0.88;;;;;;;-1.01;72.18;99693.72;4486336;31;20124;-72
2022/01/18 00:13:46;;;;;;;3.12;1.10;;;;;;;-1.06;72.88;99691.22;4486135;31;20097;-72
2022/01/18 00:18:59;;;;;;;2.55;0.90;;;;;;;-0.88;71.60;99704.50;4486283;31;20110;-72
2022/01/18 00:21:37;;;;;;;4.18;0.85;;;;;;;-0.93;72.16;99681.47;4486370;31;20148;-72
2022/01/18 00:24:07;;;;;;;1.10;0.65;;;;;;;-0.95;72.26;99686.66;4486372;31;20076;-72
2022/01/18 00:26:34;;;;;;;2.72;1.15;;;;;;;-0.98;72.43;99698.75;4486118;31;20138;-72
2022/01/18 00:29:08;;;;;;;1.00;0.47;;;;;;;-0.99;72.54;99712.50;4486272;31;20130;-72
2022/01/18 00:34:08;;;;;;;1.58;0.50;;;;;;;-1.04;73.46;99729.78;4486228;31;20073;-72
2022/01/18 00:39:14;;;;;;;3.22;1.85;;;;;;;-0.99;73.15;99727.94;4486196;31;20130;-72
2022/01/18 00:41:41;;;;;;;10.02;1.60;;;;;;;-0.95;72.68;99740.66;4485985;31;20605;-72
2022/01/18 00:44:09;;;;;;;1.65;0.80;;;;;;;-0.97;73.30;99742.44;4486253;31;20111;-72
2022/01/18 00:46:37;;;;;;;2.03;1.23;;;;;;;-0.98;73.24;99740.75;4486133;31;20100;-72
2022/01/18 00:49:05;;;;;;;6.68;0.82;;;;;;;-0.93;73.45;99763.78;4485892;31;20175;-72
2022/01/18 00:51:37;;;;;;;4.20;1.00;;;;;;;-0.95;73.79;99745.81;4485971;31;20124;-72
2022/01/18 00:54:06;;;;;;;3.67;0.95;;;;;;;-1.00;74.38;99745.09;4485982;31;20072;-72
2022/01/18 00:56:38;;;;;;;1.87;0.90;;;;;;;-0.97;74.27;99811.88;4485023;31;20452;-72
2022/01/18 00:59:06;;;;;;;8.93;2.05;;;;;;;-0.95;74.45;99766.38;4485285;31;20148;-72
2022/01/18 01:01:36;;;;;;;4.85;1.30;;;;;;;-0.96;74.88;99751.81;4484840;31;20122;-72
2022/01/18 01:04:04;;;;;;;5.35;0.80;;;;;;;-0.96;74.91;99751.00;4485078;31;20167;-72
2022/01/18 01:06:32;;;;;;;2.17;0.60;;;;;;;-1.02;75.47;99739.12;4484934;31;20401;-72
2022/01/18 01:09:00;;;;;;;8.48;0.98;;;;;;;-1.01;75.55;99740.84;4485002;31;20118;-72
2022/01/18 01:11:28;;;;;;;2.70;0.85;;;;;;;-0.99;75.26;99738.22;4483880;32;20106;-72
2022/01/18 01:13:59;;;;;;;2.30;0.80;;;;;;;-0.91;74.56;99762.00;4484774;31;20130;-72
2022/01/18 01:36:00;;;;;;;2.95;1.73;;;;;;;-1.07;75.69;99764.13;4484737;31;20102;-72
2022/01/18 01:44:07;;;;;;;1.12;0.50;;;;;;;-1.20;76.63;99747.31;4485047;32;20544;-72
2022/01/18 01:46:35;;;;;;;3.80;0.80;;;;;;;-1.21;76.39;99774.78;4484725;31;20097;-72
2022/01/18 01:49:06;;;;;;;3.83;1.00;;;;;;;-1.19;76.03;99749.84;4484551;32;20175;-72
2022/01/18 01:51:34;;;;;;;5.65;1.00;;;;;;;-1.18;76.11;99748.13;4484490;31;20126;-72
2022/01/18 01:54:04;;;;;;;0.88;0.52;;;;;;;-1.18;76.16;99755.84;4484757;31;20084;-72
2022/01/18 01:56:32;;;;;;;4.80;0.75;;;;;;;-1.21;76.08;99737.91;4478951;32;160434;-72
2022/01/18 01:58:59;;;;;;;5.82;0.98;;;;;;;-1.24;75.89;99746.56;4485457;31;20092;-72
2022/01/18 02:01:45;;;;;;;4.65;1.58;;;;;;;-1.13;75.03;99747.13;4485316;31;20109;-72
2022/01/18 02:04:16;;;;;;;3.12;1.20;;;;;;;-1.18;75.63;99758.41;4485499;31;20108;-72
2022/01/18 02:06:43;;;;;;;2.30;0.68;;;;;;;-1.17;75.54;99749.81;4485426;31;20112;-72
2022/01/18 02:09:11;;;;;;;7.72;0.90;;;;;;;-1.19;75.25;99755.00;4485516;31;20452;-72
2022/01/18 02:11:38;;;;;;;4.22;1.08;;;;;;;-1.22;75.88;99767.09;4485742;31;20446;-72
2022/01/18 02:14:08;;;;;;;4.60;1.00;;;;;;;-1.21;75.53;99768.75;4485424;31;20536;-72
2022/01/18 02:22:07;;;;;;;1.92;0.88;;;;;;;-1.26;75.79;99798.03;4485269;31;20088;-72
2022/01/18 02:24:35;;;;;;;5.18;0.90;;;;;;;-1.33;76.35;99790.47;4485409;31;20442;-72
2022/01/18 02:27:02;;;;;;;3.72;0.65;;;;;;;-1.31;76.26;99778.44;4485240;31;20119;-72
2022/01/18 02:29:29;;;;;;;2.55;0.57;;;;;;;-1.35;76.36;99785.38;4485403;31;20096;-72
2022/01/18 02:31:57;;;;;;;1.02;0.40;;;;;;;-1.38;76.61;99790.59;4485208;31;20092;-72
2022/01/18 02:34:25;;;;;;;2.62;0.75;;;;;;;-1.48;77.13;99789.97;4485106;31;20093;-72
2022/01/18 02:36:53;;;;;;;1.80;0.77;;;;;;;-1.40;77.15;99792.34;4485228;31;20097;-72
2022/01/18 02:39:26;;;;;;;1.27;0.55;;;;;;;-1.47;77.59;99794.25;4485110;31;20698;-72
2022/01/18 02:41:59;;;;;;;10.70;1.10;;;;;;;-1.49;77.69;99802.84;4485307;31;20110;-72
2022/01/18 02:44:27;;;;;;;8.70;1.80;;;;;;;-1.54;77.86;99802.97;4485234;32;20113;-72
2022/01/18 02:46:55;;;;;;;2.70;1.37;;;;;;;-1.52;77.65;99805.50;4485091;31;20167;-72
2022/01/18 02:49:22;;;;;;;2.25;0.90;;;;;;;-1.53;77.48;99814.94;4484992;31;20115;-72
2022/01/18 02:51:50;;;;;;;3.55;0.90;;;;;;;-1.48;77.26;99800.25;4485158;32;20115;-72
2022/01/18 02:54:18;;;;;;;4.28;1.25;;;;;;;-1.49;77.19;99820.84;4485066;31;20152;-72
2022/01/18 02:56:48;;;;;;;3.62;0.93;;;;;;;-1.53;77.51;99820.06;4484950;31;20424;-72
2022/01/18 02:59:29;;;;;;;1.70;0.57;;;;;;;-1.55;77.62;99821.81;4485117;32;20370;-72
2022/01/18 03:04:45;;;;;;;5.93;0.93;;;;;;;-1.54;77.84;99825.25;4485453;31;20558;-72
2022/01/18 03:07:13;;;;;;;8.10;1.08;;;;;;;-1.54;78.03;99835.53;4484926;32;20081;-72
2022/01/18 03:09:40;;;;;;;3.90;1.05;;;;;;;-1.55;77.83;99833.84;4484901;31;20099;-72
2022/01/18 03:12:10;;;;;;;13.70;1.27;;;;;;;-1.57;77.99;99836.44;4483665;32;20126;-72
2022/01/18 03:14:38;;;;;;;8.35;1.20;;;;;;;-1.57;78.06;99841.56;4484741;31;20080;-72
2022/01/18 03:17:06;;;;;;;3.20;0.85;;;;;;;-1.51;77.83;99859.41;4484905;31;20168;-72
2022/01/18 03:19:34;;;;;;;3.70;1.23;;;;;;;-1.45;77.74;99866.16;4484518;32;20092;-72
2022/01/18 03:22:03;;;;;;;3.20;0.93;;;;;;;-1.56;78.17;99862.97;4484882;31;20164;-72
2022/01/18 03:30:06;;;;;;;4.07;1.52;;;;;;;-1.49;78.06;99893.63;4484661;31;20079;-72
2022/01/18 03:32:34;;;;;;;5.12;1.00;;;;;;;-1.53;78.43;99904.00;4484707;31;20092;-72
2022/01/18 03:35:03;;;;;;;1.95;0.82;;;;;;;-1.56;78.47;99911.78;4484790;32;20092;-72
2022/01/18 03:37:30;;;;;;;5.00;0.62;;;;;;;-1.51;78.35;99915.13;4483532;32;20114;-72
2022/01/18 03:39:58;;;;;;;9.05;1.27;;;;;;;-1.63;78.79;99927.34;4484503;31;20092;-72
2022/01/18 03:45:01;;;;;;;5.53;1.25;;;;;;;-1.61;78.55;99915.28;4484632;31;20088;-72
2022/01/18 03:47:29;;;;;;;5.40;0.80;;;;;;;-1.67;78.92;99909.44;4483333;32;20105;-72
2022/01/18 03:49:56;;;;;;;4.97;1.10;;;;;;;-1.55;78.41;99918.63;4484340;31;20143;-72
2022/01/18 03:52:24;;;;;;;2.47;0.88;;;;;;;-1.58;78.19;99921.25;4484390;31;20122;-72
2022/01/18 03:54:52;;;;;;;2.65;1.15;;;;;;;-1.49;77.79;99923.63;4483997;31;20088;-72
2022/01/18 03:57:19;;;;;;;2.22;1.12;;;;;;;-1.52;77.75;99918.56;4484485;31;20445;-72
2022/01/18 03:59:46;;;;;;;1.90;0.90;;;;;;;-1.53;77.67;99917.72;4484246;31;20096;-72
2022/01/18 04:02:14;;;;;;;5.45;0.80;;;;;;;-1.53;77.61;99922.00;4469970;32;20195;-72
2022/01/18 04:04:42;;;;;;;2.30;0.70;;;;;;;-1.45;77.03;99926.09;4468455;32;20473;-72
2022/01/18 04:07:10;;;;;;;6.62;1.02;;;;;;;-1.48;77.23;99938.19;4468505;32;20084;-72
2022/01/18 04:09:37;;;;;;;5.18;1.25;;;;;;;-1.51;77.23;99936.53;4468556;32;20208;-72
2022/01/18 04:12:05;;;;;;;2.15;1.27;;;;;;;-1.46;77.10;99939.81;4468538;32;20096;-72
2022/01/18 04:14:32;;;;;;;2.40;0.80;;;;;;;-1.47;77.12;99945.88;4468358;32;20184;-72
2022/01/18 04:27:40;;;;;;;3.55;0.80;;;;;;;-1.53;77.59;99950.25;4483963;31;20097;-72
2022/01/18 04:30:08;;;;;;;5.10;1.10;;;;;;;-1.56;77.66;99958.03;4483869;31;20100;-72
2022/01/18 04:32:35;;;;;;;5.15;0.70;;;;;;;-1.56;77.68;99953.78;4483654;31;20480;-72
2022/01/18 04:35:03;;;;;;;4.57;1.33;;;;;;;-1.55;77.56;99952.88;4483658;31;20115;-72
2022/01/18 04:37:30;;;;;;;4.97;1.27;;;;;;;-1.61;78.07;99951.25;4483811;31;20120;-72
2022/01/18 04:39:58;;;;;;;3.25;0.55;;;;;;;-1.64;78.08;99987.28;4483638;31;20473;-72
2022/01/18 04:50:43;;;;;;;1.48;0.60;;;;;;;-1.65;78.22;99970.22;4485856;31;20498;-71
2022/01/18 04:53:10;;;;;;;10.93;1.20;;;;;;;-1.68;78.04;99985.69;4485949;31;20092;-72
2022/01/18 04:55:37;;;;;;;1.75;0.68;;;;;;;-1.79;78.60;99996.16;4485763;31;20088;-71
2022/01/18 04:58:04;;;;;;;2.55;1.15;;;;;;;-1.79;79.05;100003.88;4485857;31;20101;-72
2022/01/18 05:00:31;;;;;;;3.95;0.68;;;;;;;-1.86;79.73;99997.16;4485802;31;20108;-72
2022/01/18 05:02:59;;;;;;;1.25;0.60;;;;;;;-1.92;80.49;100006.66;4485742;31;20099;-72
2022/01/18 05:05:30;;;;;;;1.20;0.95;;;;;;;-2.07;81.71;100003.53;4485868;31;20088;-72
2022/01/18 05:08:04;;;;;;;3.97;0.85;;;;;;;-2.06;82.31;99989.81;4485762;31;20103;-72
2022/01/18 05:10:32;;;;;;;3.58;0.93;;;;;;;-2.14;83.12;99986.53;4485837;31;20143;-72
2022/01/18 05:13:10;;;;;;;4.22;0.82;;;;;;;-2.19;83.72;99989.19;4485671;31;20592;-71
2022/01/18 05:15:45;;;;;;;2.30;0.68;;;;;;;-2.27;84.45;99983.34;4485870;31;20149;-71
2022/01/18 05:19:00;;;;;;;18.08;1.42;;;;;;;-2.26;84.81;99994.44;4485825;31;20099;-72
2022/01/18 05:23:36;;;;;;;3.37;0.90;;;;;;;-2.33;85.51;99989.41;4485614;31;20088;-72
2022/01/18 05:26:04;;;;;;;8.57;0.70;;;;;;;-2.36;85.72;99999.72;4485634;31;20505;-71
2022/01/18 05:28:31;;;;;;;2.55;1.10;;;;;;;-2.35;85.94;99998.00;4483864;31;20092;-71
2022/01/18 05:30:58;;;;;;;7.57;1.48;;;;;;;-2.38;86.08;100001.44;4483663;31;20092;-71
2022/01/18 05:33:26;;;;;;;3.35;0.73;;;;;;;-2.38;86.29;99996.31;4485594;31;20088;-72
2022/01/18 05:35:54;;;;;;;3.00;0.93;;;;;;;-2.40;86.55;100008.34;4484015;31;20116;-72
2022/01/18 05:38:21;;;;;;;1.27;0.77;;;;;;;-2.51;87.33;100002.56;4484232;32;20512;-72
2022/01/18 05:40:49;;;;;;;3.42;1.50;;;;;;;-2.54;87.75;100008.56;4484638;31;20149;-72
2022/01/18 05:43:18;;;;;;;6.12;1.20;;;;;;;-2.47;87.88;100022.12;4485510;32;20140;-71
2022/01/18 05:45:45;;;;;;;2.37;1.05;;;;;;;-2.40;87.58;100016.03;4484766;31;20879;-72
2022/01/18 05:48:13;;;;;;;4.37;0.98;;;;;;;-2.37;87.64;100018.56;4483775;31;20084;-72
2022/01/18 05:50:40;;;;;;;8.32;1.62;;;;;;;-2.35;87.72;100023.66;4483438;31;20450;-72
2022/01/18 05:53:07;;;;;;;4.93;1.05;;;;;;;-2.34;87.52;100023.63;4482935;31;20127;-71
2022/01/18 05:55:35;;;;;;;3.33;1.92;;;;;;;-2.28;87.50;100050.09;4483173;31;20132;-71
2022/01/18 05:58:02;;;;;;;17.67;3.17;;;;;;;-2.28;87.21;100009.03;4485407;31;20123;-72
2022/01/18 06:00:31;;;;;;;1.70;0.80;;;;;;;-2.24;87.15;100010.66;4484090;31;20100;-72
2022/01/18 06:08:16;;;;;;;4.47;1.20;;;;;;;-2.23;86.92;100008.06;4480245;32;20088;-71
2022/01/18 06:10:43;;;;;;;5.78;1.48;;;;;;;-2.26;87.22;100004.72;4478364;31;20433;-71
2022/01/18 06:13:12;;;;;;;2.45;0.57;;;;;;;-2.15;86.38;100018.19;4478009;32;20116;-71
2022/01/18 06:15:39;;;;;;;3.12;1.25;;;;;;;-2.10;86.03;100028.41;4480131;32;20773;-72
2022/01/18 06:18:06;;;;;;;3.10;0.95;;;;;;;-2.21;86.61;100032.00;4482039;32;20109;-71
2022/01/18 06:20:34;;;;;;;5.50;1.65;;;;;;;-2.17;86.67;100040.50;4480272;31;20108;-71
2022/01/18 06:23:02;;;;;;;6.15;1.30;;;;;;;-2.15;86.56;100021.62;4483092;31;20100;-70
2022/01/18 06:25:30;;;;;;;3.05;0.75;;;;;;;-2.16;86.77;100025.06;4478623;31;20167;-71
2022/01/18 06:27:57;;;;;;;4.53;0.98;;;;;;;-2.20;87.06;100025.97;4482595;32;20092;-70
2022/01/18 06:30:24;;;;;;;9.30;1.05;;;;;;;-2.20;87.28;100025.97;4472796;31;20135;-71
2022/01/18 06:32:51;;;;;;;2.83;0.82;;;;;;;-2.22;87.74;100037.16;4478308;31;20088;-71
2022/01/18 06:35:18;;;;;;;2.20;1.05;;;;;;;-2.18;87.62;100047.34;4483095;32;20096;-70
2022/01/18 06:37:45;;;;;;;5.85;1.17;;;;;;;-2.18;87.84;100046.47;4474427;32;20147;-71
2022/01/18 06:40:14;;;;;;;2.67;1.20;;;;;;;-2.20;88.05;100040.53;4482276;32;20088;-71
2022/01/18 06:42:41;;;;;;;7.28;1.48;;;;;;;-2.17;88.18;100043.87;4483582;31;20127;-71
2022/01/18 06:45:10;;;;;;;1.95;1.02;;;;;;;-2.16;88.51;100049.91;4482375;32;20156;-71
2022/01/18 06:47:38;;;;;;;2.22;0.43;;;;;;;-2.18;88.77;100056.75;4481478;31;20114;-70
2022/01/18 06:50:07;;;;;;;4.47;1.62;;;;;;;-2.17;88.90;100053.31;4483169;32;20104;-70
2022/01/18 06:52:34;;;;;;;2.05;0.95;;;;;;;-2.15;89.10;100041.28;4483480;32;20114;-71
2022/01/18 06:55:02;;;;;;;11.30;1.27;;;;;;;-2.08;88.81;100060.03;4480978;32;20100;-71
2022/01/18 06:57:29;;;;;;;8.50;1.45;;;;;;;-2.03;88.76;100065.94;4482986;31;20600;-71
2022/01/18 06:59:56;;;;;;;2.70;0.52;;;;;;;-1.97;88.49;100045.28;4483960;32;20817;-71
2022/01/18 07:02:24;;;;;;;5.00;1.80;;;;;;;-1.97;88.60;100048.72;4484087;32;20134;-71
2022/01/18 07:04:51;;;;;;;3.25;0.95;;;;;;;-1.96;88.72;100041.84;4482548;31;20519;-70
2022/01/18 07:07:19;;;;;;;6.53;1.48;;;;;;;-1.96;88.79;100037.53;4479386;32;20097;-71
2022/01/18 07:09:46;;;;;;;7.72;1.60;;;;;;;-1.87;88.50;100033.13;4482398;32;20506;-72
2022/01/18 07:12:13;;;;;;;8.95;1.87;;;;;;;-1.86;88.58;100034.81;4477885;31;20119;-71
2022/01/18 07:14:41;;;;;;;4.03;1.40;;;;;;;-1.88;88.66;100039.97;4474008;31;20524;-72
2022/01/18 07:17:09;;;;;;;6.53;1.15;;;;;;;-1.80;88.55;100042.44;4483765;31;20618;-70
2022/01/18 07:19:37;;;;;;;6.35;1.40;;;;;;;-1.75;88.37;100043.19;4483482;31;20122;-71
2022/01/18 07:22:05;;;;;;;8.98;1.77;;;;;;;-1.68;88.22;100047.34;4482694;32;20100;-71
2022/01/18 07:24:44;;;;;;;5.37;1.70;;;;;;;-1.67;88.41;100051.59;4475158;31;20089;-72
2022/01/18 07:27:13;;;;;;;2.45;1.20;;;;;;;-1.57;87.87;100042.00;4481111;31;20156;-72
2022/01/18 07:29:42;;;;;;;5.80;1.55;;;;;;;-1.50;87.35;100056.44;4475016;32;20127;-72
2022/01/18 07:32:11;;;;;;;8.23;1.58;;;;;;;-1.49;87.70;100055.53;4481246;32;20454;-72
2022/01/18 07:34:51;;;;;;;5.20;1.67;;;;;;;-1.39;86.99;100045.06;4480373;31;20104;-72
2022/01/18 07:37:20;;;;;;;2.40;0.90;;;;;;;-1.38;86.90;100050.19;4479082;32;20114;-71
2022/01/18 07:39:49;;;;;;;5.25;1.90;;;;;;;-1.34;86.73;100041.53;4474356;32;20108;-71
2022/01/18 07:42:17;;;;;;;3.37;1.08;;;;;;;-1.28;86.52;100056.84;4473339;32;20548;-74
2022/01/18 07:44:45;;;;;;;7.40;1.60;;;;;;;-1.22;86.23;100060.19;4471638;32;20898;-69
2022/01/18 07:47:14;;;;;;;3.37;1.33;;;;;;;-1.19;86.39;100050.69;4485109;31;20139;-72
2022/01/18 07:49:45;;;;;;;4.30;1.73;;;;;;;-1.12;86.05;100066.81;4478414;31;20100;-71
2022/01/18 07:52:12;;;;;;;8.35;1.85;;;;;;;-1.03;85.77;100076.94;4473216;32;20116;-71
2022/01/18 07:54:39;;;;;;;2.60;1.12;;;;;;;-1.01;85.40;100064.88;4473487;31;20112;-71
2022/01/18 07:57:13;;;;;;;5.43;2.15;;;;;;;-0.96;85.72;100077.66;4483615;31;20096;-72
2022/01/18 07:59:40;;;;;;;2.67;1.42;;;;;;;-0.94;85.44;100079.31;4483734;31;20142;-72
2022/01/18 08:02:07;;;;;;;3.83;0.95;;;;;;;-0.89;85.83;100084.37;4478309;31;20121;-70
2022/01/18 08:04:35;;;;;;;8.43;1.42;;;;;;;-0.86;85.56;100099.72;4480605;32;20155;-72
2022/01/18 08:07:02;;;;;;;6.10;1.45;;;;;;;-0.81;85.42;100094.50;4473031;32;20101;-71
2022/01/18 08:09:30;;;;;;;6.03;1.40;;;;;;;-0.75;85.52;100109.78;4476415;32;20156;-70
2022/01/18 08:11:57;;;;;;;6.60;2.10;;;;;;;-0.73;85.10;100116.62;4476885;31;20092;-70
2022/01/18 08:14:27;;;;;;;3.53;1.50;;;;;;;-0.69;85.52;100101.94;4474744;31;20134;-71
2022/01/18 08:17:00;;;;;;;4.62;1.90;;;;;;;-0.65;85.60;100107.84;4480702;32;20157;-71
2022/01/18 08:19:29;;;;;;;5.00;2.00;;;;;;;-0.64;85.55;100107.00;4481726;32;20154;-71
2022/01/18 08:21:58;;;;;;;8.73;1.75;;;;;;;-0.51;85.12;100105.00;4483863;31;20188;-71
2022/01/18 08:24:26;;;;;;;4.97;1.50;;;;;;;-0.40;84.58;100118.47;4481801;32;20096;-71
2022/01/18 08:26:54;;;;;;;7.20;2.08;;;;;;;-0.39;83.95;100146.75;4485011;31;20833;-70
2022/01/18 08:29:21;;;;;;;1.87;1.05;;;;;;;-0.39;82.45;100141.59;4483520;32;20105;-70
2022/01/18 08:32:09;;;;;;;7.55;1.77;;;;;;;-0.23;83.08;100136.09;4477365;32;20134;-71
2022/01/18 08:34:36;;;;;;;5.57;1.23;;;;;;;-0.21;82.39;100135.19;4477870;32;20100;-71
2022/01/18 08:37:03;;;;;;;4.28;1.75;;;;;;;-0.15;81.10;100149.69;4480705;31;20144;-71
2022/01/18 08:39:30;;;;;;;4.53;1.90;;;;;;;-0.06;81.48;100158.91;4479769;32;20131;-71
2022/01/18 08:41:57;;;;;;;12.45;2.35;;;;;;;0.00;80.44;100158.78;4483234;31;20103;-71
2022/01/18 08:44:24;;;;;;;8.98;1.90;;;;;;;-0.06;80.33;100179.50;4480434;31;20115;-71
2022/01/18 08:46:52;;;;;;;11.85;2.55;;;;;;;-0.02;80.13;100174.25;4480413;31;20123;-70
2022/01/18 08:49:19;;;;;;;3.92;1.70;;;;;;;0.05;80.05;100182.69;4479275;31;20134;-70
2022/01/18 08:51:46;;;;;;;7.85;2.03;;;;;;;0.05;79.30;100185.28;4476060;32;20100;-70
2022/01/18 08:54:13;;;;;;;6.25;1.55;;;;;;;0.06;78.85;100193.84;4472050;32;20096;-68
2022/01/18 08:56:41;;;;;;;1.80;0.70;;;;;;;0.10;78.98;100185.16;4480954;32;20139;-69
2022/01/18 08:59:24;;;;;;;6.60;1.67;;;;;;;0.10;78.69;100216.09;4476007;32;20097;-70
2022/01/18 09:01:51;;;;;;;9.27;1.60;;;;;;;0.22;78.88;100184.03;4474910;32;20112;-70
2022/01/18 09:04:21;;;;;;;6.18;1.70;;;;;;;0.28;77.98;100194.19;4481496;32;20104;-71
2022/01/18 09:06:50;;;;;;;4.62;1.27;;;;;;;0.32;78.56;100204.38;4480333;32;20176;-71
2022/01/18 09:09:19;;;;;;;2.15;1.15;;;;;;;0.37;78.06;100218.91;4481083;31;20160;-71
2022/01/18 09:11:46;;;;;;;14.05;2.78;;;;;;;0.48;78.13;100227.22;4483826;31;20460;-72
2022/01/18 09:14:14;;;;;;;26.92;8.52;;;;;;;0.46;77.29;100218.69;4480524;32;20114;-71
2022/01/18 09:16:42;;;;;;;5.37;2.30;;;;;;;0.51;76.63;100216.81;4474842;31;20679;-72
2022/01/18 09:19:09;;;;;;;11.50;2.28;;;;;;;0.45;76.29;100212.66;4476708;31;20116;-73
2022/01/18 09:21:37;;;;;;;3.50;1.30;;;;;;;0.44;77.33;100225.59;4475302;31;20104;-73
2022/01/18 09:24:05;;;;;;;4.12;2.40;;;;;;;0.49;76.73;100227.19;4475864;32;20823;-73
2022/01/18 09:26:33;;;;;;;5.25;1.20;;;;;;;0.53;76.65;100231.38;4473050;32;20112;-72
2022/01/18 09:29:01;;;;;;;6.43;1.92;;;;;;;0.60;76.67;100229.50;4477755;31;20120;-72
2022/01/18 09:31:29;;;;;;;6.50;1.92;;;;;;;0.60;75.92;100232.06;4475366;32;20229;-73
2022/01/18 09:33:56;;;;;;;7.72;1.77;;;;;;;0.58;75.46;100235.59;4474437;32;20116;-72
2022/01/18 09:36:24;;;;;;;5.50;3.00;;;;;;;0.55;76.61;100227.94;4475141;32;20182;-71
2022/01/18 09:38:51;;;;;;;4.55;1.20;;;;;;;0.68;75.93;100234.44;4481250;31;20149;-74
2022/01/18 09:41:21;;;;;;;4.40;1.48;;;;;;;0.70;74.51;100243.84;4478474;31;20096;-74
2022/01/18 09:43:51;;;;;;;10.00;1.80;;;;;;;0.69;74.97;100231.84;4480536;32;20103;-74
2022/01/18 09:46:19;;;;;;;7.57;2.45;;;;;;;0.81;75.03;100235.84;4480094;31;20095;-76
2022/01/18 09:48:46;;;;;;;9.10;1.87;;;;;;;0.93;74.52;100239.00;4477039;31;20148;-73
2022/01/18 09:51:14;;;;;;;6.05;1.60;;;;;;;0.97;74.14;100245.75;4478145;32;20571;-73
2022/01/18 09:53:41;;;;;;;2.62;1.23;;;;;;;1.02;73.12;100246.50;4478424;32;20088;-74
2022/01/18 09:56:08;;;;;;;8.55;1.73;;;;;;;1.04;73.12;100247.31;4482806;32;20088;-74
2022/01/18 09:58:36;;;;;;;4.00;1.23;;;;;;;1.14;73.12;100248.75;4481133;31;20107;-72
2022/01/18 10:01:04;;;;;;;14.77;2.12;;;;;;;1.13;72.52;100247.06;4482222;32;20145;-75
2022/01/18 10:03:37;;;;;;;7.32;1.20;;;;;;;1.03;72.13;100240.44;4483070;32;20215;-74
2022/01/18 10:06:07;;;;;;;6.00;2.67;;;;;;;1.04;72.20;100250.72;4478836;31;20429;-76
2022/01/18 10:08:41;;;;;;;6.72;1.42;;;;;;;1.02;72.02;100254.25;4483367;31;20218;-74
2022/01/18 10:11:10;;;;;;;7.45;1.45;;;;;;;1.15;73.06;100252.19;4475389;31;20153;-77
2022/01/18 10:13:38;;;;;;;11.43;4.85;;;;;;;1.26;73.09;100244.13;4481988;32;20122;-74
2022/01/18 10:16:06;;;;;;;13.00;4.95;;;;;;;1.32;72.76;100250.00;4481223;31;20089;-74
2022/01/18 10:18:39;;;;;;;8.00;2.87;;;;;;;1.38;72.55;100247.25;4480778;32;20159;-75
2022/01/18 10:21:07;;;;;;;6.53;1.20;;;;;;;1.40;72.21;100260.94;4475534;32;20108;-74
2022/01/18 10:23:35;;;;;;;6.53;1.25;;;;;;;1.34;71.70;100250.78;4481066;31;20118;-74
2022/01/18 10:26:15;;;;;;;5.65;1.12;;;;;;;1.42;72.79;100240.25;4480725;31;20588;-74
2022/01/18 10:28:43;;;;;;;39.60;9.05;;;;;;;1.59;72.71;100224.31;4482357;32;20096;-74
2022/01/18 10:31:31;;;;;;;4.82;2.83;;;;;;;1.43;71.06;100241.97;4480631;31;20466;-74
2022/01/18 10:37:25;;;;;;;7.22;1.60;;;;;;;1.46;71.02;100212.63;4475514;31;20085;-73
2022/01/18 10:39:55;;;;;;;5.05;1.08;;;;;;;1.38;70.13;100231.75;4480199;31;20100;-75
2022/01/18 10:42:38;;;;;;;5.20;1.27;;;;;;;1.40;69.81;100244.63;4477262;31;20130;-74
2022/01/18 10:45:19;;;;;;;7.70;1.40;;;;;;;1.47;70.51;100203.97;4475958;32;20448;-74
2022/01/18 10:48:14;;;;;;;2.60;1.15;;;;;;;1.43;69.76;100213.56;4480809;32;20084;-74
2022/01/18 10:50:44;;;;;;;4.10;1.55;;;;;;;1.50;69.82;100216.78;4478484;32;20128;-74
2022/01/18 10:53:25;;;;;;;3.95;1.17;;;;;;;1.43;68.38;100234.22;4482933;31;20146;-74
2022/01/18 10:56:12;;;;;;;4.50;1.75;;;;;;;1.52;68.32;100241.69;4479381;32;20434;-73
2022/01/18 10:58:46;;;;;;;8.50;1.50;;;;;;;1.55;69.04;100231.28;4478973;32;20088;-74
2022/01/18 11:01:19;;;;;;;4.15;2.30;;;;;;;1.57;67.98;100234.66;4477711;32;20162;-74
2022/01/18 11:04:22;;;;;;;9.98;1.27;;;;;;;1.65;67.05;100236.19;4475684;32;20495;-74
2022/01/18 11:06:58;;;;;;;3.20;1.27;;;;;;;1.74;66.85;100236.78;4479809;32;20099;-73
2022/01/18 11:09:25;;;;;;;3.15;1.05;;;;;;;1.73;67.92;100226.47;4478929;31;20092;-74
2022/01/18 11:11:53;;;;;;;7.40;1.10;;;;;;;1.78;66.27;100234.94;4479835;32;20104;-72
2022/01/18 11:14:22;;;;;;;7.43;1.95;;;;;;;1.71;65.90;100229.12;4481553;32;20101;-74
2022/01/18 11:16:50;;;;;;;4.70;1.67;;;;;;;1.67;65.89;100237.84;4478926;31;20134;-73
2022/01/18 11:21:51;;;;;;;2.10;0.93;;;;;;;1.78;66.13;100256.44;4477245;32;20119;-74
2022/01/18 11:24:19;;;;;;;6.37;1.42;;;;;;;1.76;66.74;100242.72;4480192;31;20136;-73
2022/01/18 11:26:48;;;;;;;3.20;1.48;;;;;;;1.69;66.98;100248.13;4482434;32;20164;-73
2022/01/18 11:29:17;;;;;;;6.40;1.25;;;;;;;1.74;66.49;100252.28;4479577;31;20100;-72
2022/01/18 11:31:50;;;;;;;2.67;1.30;;;;;;;1.74;67.02;100254.00;4481169;32;20171;-73
2022/01/18 11:34:49;;;;;;;8.20;1.20;;;;;;;1.82;66.32;100261.50;4479316;32;20474;-73
2022/01/18 11:37:21;;;;;;;3.22;0.82;;;;;;;1.79;66.47;100272.81;4481608;32;20743;-73
2022/01/18 11:40:04;;;;;;;4.55;1.52;;;;;;;1.73;66.46;100279.00;4478291;32;20091;-74
2022/01/18 11:42:50;;;;;;;4.87;1.10;;;;;;;1.86;65.52;100265.72;4477025;32;20108;-73
2022/01/18 11:45:37;;;;;;;4.03;1.30;;;;;;;1.79;66.21;100272.81;4474710;32;20122;-73
2022/01/18 11:48:07;;;;;;;9.65;1.65;;;;;;;1.84;65.86;100263.16;4476175;32;20110;-72
2022/01/18 11:50:37;;;;;;;11.30;1.87;;;;;;;1.82;66.18;100277.87;4480129;32;20111;-72
2022/01/18 11:53:23;;;;;;;2.97;1.70;;;;;;;1.87;66.95;100281.16;4480249;32;20092;-73
2022/01/18 11:55:55;;;;;;;3.87;1.30;;;;;;;1.93;65.63;100283.56;4474088;32;20096;-72
2022/01/18 11:58:24;;;;;;;11.25;2.97;;;;;;;2.02;66.42;100279.88;4481190;32;21671;-71
2022/01/18 12:00:57;;;;;;;18.05;5.47;;;;;;;1.95;66.30;100297.31;4479725;31;20446;-71
2022/01/18 12:03:31;;;;;;;4.00;1.75;;;;;;;1.86;67.82;100256.25;4481300;32;20165;-71
2022/01/18 12:06:01;;;;;;;31.50;7.87;;;;;;;1.94;66.67;100248.25;4474544;31;20100;-71
2022/01/18 12:08:35;;;;;;;8.35;1.45;;;;;;;1.91;67.00;100261.28;4482719;32;20393;-71
2022/01/18 12:11:08;;;;;;;4.32;1.60;;;;;;;1.90;66.06;100244.91;4479842;31;20602;-71
2022/01/18 12:13:42;;;;;;;11.00;2.55;;;;;;;1.93;67.43;100237.06;4478792;32;20112;-71
2022/01/18 12:16:26;;;;;;;7.22;1.77;;;;;;;2.00;67.47;100240.31;4478451;32;20096;-72
2022/01/18 12:19:00;;;;;;;4.05;1.80;;;;;;;1.99;67.00;100233.44;4476386;32;20118;-70
2022/01/18 12:21:29;;;;;;;2.92;1.60;;;;;;;2.08;65.16;100279.69;4483523;32;20122;-71
2022/01/18 12:24:12;;;;;;;3.37;1.30;;;;;;;1.99;66.23;100258.47;4474110;32;20134;-72
2022/01/18 12:26:43;;;;;;;8.45;2.90;;;;;;;2.19;66.86;100243.16;4479865;32;20501;-71
2022/01/18 12:34:51;;;;;;;7.40;1.83;;;;;;;2.15;65.15;100274.34;4482439;31;20128;-71
2022/01/18 12:37:23;;;;;;;9.80;1.90;;;;;;;2.03;65.98;100250.56;4471484;32;20096;-71
2022/01/18 12:39:54;;;;;;;9.77;1.77;;;;;;;2.11;65.68;100264.09;4477029;31;20137;-71
2022/01/18 12:44:20;;;;;;;4.25;1.65;;;;;;;2.18;65.62;100264.75;4484318;31;20085;-72
2022/01/18 12:45:33;;;;;;;2.85;1.40;;;;;;;2.04;63.94;100272.91;4474217;32;20088;-71
2022/01/18 12:48:05;;;;;;;10.75;1.92;;;;;;;2.06;65.13;100270.28;4484028;31;20100;-71
2022/01/18 12:50:38;;;;;;;5.55;1.62;;;;;;;2.08;65.62;100284.03;4484238;31;20174;-72
2022/01/18 12:53:18;;;;;;;6.65;1.73;;;;;;;2.02;65.48;100279.03;4481484;32;20548;-72
2022/01/18 12:55:58;;;;;;;6.55;2.40;;;;;;;1.99;65.59;100284.31;4482763;32;20100;-72
2022/01/18 12:58:34;;;;;;;6.90;2.12;;;;;;;2.00;66.34;100262.72;4480042;31;20123;-73
2022/01/18 13:01:09;;;;;;;7.87;2.62;;;;;;;1.86;66.67;100273.47;4481307;32;20096;-72
2022/01/18 13:03:46;;;;;;;4.70;1.65;;;;;;;1.83;66.96;100279.56;4481093;32;20088;-72
2022/01/18 13:06:20;;;;;;;4.95;1.58;;;;;;;1.80;66.29;100279.66;4484438;32;20100;-72
2022/01/18 13:08:53;;;;;;;7.70;1.90;;;;;;;1.79;66.37;100272.81;4476760;31;20533;-71
2022/01/18 13:11:28;;;;;;;7.60;1.87;;;;;;;1.85;66.98;100280.38;4483975;32;20142;-72